»·PEaware :: FFT761 KDEN-KLAS

FFT761 :: KDEN-KLAS

FLIGHT INFORMATION

Flight Status: Arrived
Operator:
Frontier Airlines
More flights by this operator :: More flights under this callsign
Pilot: Chandler S. (807)
Aircraft: AIRBUS A320
(A320)
More flights by this aircraft type
Origin: KDEN Denver Intl
United States
Destination: KLAS McCarran Intl
United States
More flights between these airports :: More routes between these airports
Route: +CONNR4 DBL J60 HVE GGAPP SITEE2
File this flight plan on PilotEdge
Remarks:
Altitude:
(Current/Filed)
36,000ft
Speed:
(Current/Filed)
300kts
Departed: 29-Apr-18 01:25 PM
Arrived: 29-Apr-18 02:58 PM
Distance/Time
Traveled:
544nm/1:32
Distance/Time
To Go:
Arrived

Flight Plot

Page will automatically refresh every two minutes.

Flight plan parsing failed; only flown route is shown


Map Options




Map Legend


Flown Route
Filed Route
Departure Airport
Arrival Airport
Navaid (VOR, NDB)
Fix

Horizontal Profiles

Position Reports

Time Latitude Longitude Heading Altitude Ground
Speed
29-Apr-18 13:01 39.853340 -104.678001 58 5440ft 0kts
29-Apr-18 13:02 39.853340 -104.678001 58 5440ft 0kts
29-Apr-18 13:03 39.853340 -104.678001 58 5440ft 0kts
29-Apr-18 13:04 39.853340 -104.678001 58 5440ft 0kts
29-Apr-18 13:05 39.853340 -104.678001 58 5440ft 0kts
29-Apr-18 13:06 39.853340 -104.678001 58 5440ft 0kts
29-Apr-18 13:07 39.853340 -104.678001 58 5440ft 0kts
29-Apr-18 13:08 39.853340 -104.678001 58 5440ft 0kts
29-Apr-18 13:09 39.853340 -104.678001 58 5440ft 0kts
29-Apr-18 13:10 39.853340 -104.678001 58 5440ft 0kts
29-Apr-18 13:11 39.853340 -104.678001 58 5440ft 0kts
29-Apr-18 13:12 39.853340 -104.678001 58 5440ft 0kts
29-Apr-18 13:13 39.853311 -104.678066 51 5440ft 2kts
29-Apr-18 13:14 39.852802 -104.677994 296 5440ft 2kts
29-Apr-18 13:15 39.852767 -104.677742 268 5440ft 0kts
29-Apr-18 13:16 39.852767 -104.677742 269 5440ft 0kts
29-Apr-18 13:17 39.852767 -104.677742 269 5440ft 0kts
29-Apr-18 13:18 39.852744 -104.678018 224 5440ft 4kts
29-Apr-18 13:19 39.852513 -104.673821 91 5440ft 4kts
29-Apr-18 13:20 39.852748 -104.665543 81 5440ft 32kts
29-Apr-18 13:21 39.857960 -104.662361 3 5440ft 28kts
29-Apr-18 13:22 39.860991 -104.661503 88 5440ft 0kts
29-Apr-18 13:23 39.860996 -104.661266 88 5440ft 7kts
29-Apr-18 13:24 39.843075 -104.660340 180 5441ft 185kts
29-Apr-18 13:25 39.785483 -104.684810 217 8018ft 274kts
29-Apr-18 13:26 39.756293 -104.776826 268 10983ft 316kts
29-Apr-18 13:27 39.757171 -104.894779 271 13994ft 340kts
29-Apr-18 13:28 39.772921 -105.017612 277 17255ft 353kts
29-Apr-18 13:29 39.788718 -105.143451 276 20537ft 356kts
29-Apr-18 13:30 39.782736 -105.268808 253 22847ft 368kts
29-Apr-18 13:31 39.753677 -105.405428 253 23674ft 408kts
29-Apr-18 13:32 39.724222 -105.542226 253 26756ft 377kts
29-Apr-18 13:33 39.699448 -105.665625 256 30122ft 335kts
29-Apr-18 13:34 39.686320 -105.781494 259 31963ft 333kts
29-Apr-18 13:35 39.672631 -105.905152 259 32810ft 355kts
29-Apr-18 13:36 39.658418 -106.031922 258 34182ft 356kts
29-Apr-18 13:37 39.644132 -106.158060 258 35561ft 352kts
29-Apr-18 13:38 39.629733 -106.283885 259 36165ft 366kts
29-Apr-18 13:39 39.595151 -106.411537 246 36107ft 392kts
29-Apr-18 13:40 39.551983 -106.546223 246 36007ft 414kts
29-Apr-18 13:41 39.508304 -106.681824 245 36008ft 407kts
29-Apr-18 13:42 39.464939 -106.815851 245 36022ft 403kts
29-Apr-18 13:43 39.425208 -106.950077 250 36035ft 397kts
29-Apr-18 13:44 39.391996 -107.084038 250 36042ft 386kts
29-Apr-18 13:45 39.359341 -107.214095 250 36055ft 377kts
29-Apr-18 13:46 39.326989 -107.342134 250 36034ft 372kts
29-Apr-18 13:47 39.294428 -107.470332 250 35978ft 385kts
29-Apr-18 13:48 39.260409 -107.603572 250 35956ft 396kts
29-Apr-18 13:49 39.225855 -107.738091 250 35959ft 400kts
29-Apr-18 13:50 39.190978 -107.873113 250 35963ft 392kts
29-Apr-18 13:51 39.156706 -108.005091 250 35969ft 386kts
29-Apr-18 13:52 39.122554 -108.135961 249 35944ft 384kts
29-Apr-18 13:53 39.088595 -108.265383 249 35923ft 381kts
29-Apr-18 13:54 39.054681 -108.393984 249 35925ft 379kts
29-Apr-18 13:55 39.020661 -108.522320 250 35925ft 378kts
29-Apr-18 13:56 38.986694 -108.649821 250 35926ft 378kts
29-Apr-18 13:57 38.952915 -108.775983 250 35926ft 381kts
29-Apr-18 13:58 38.918342 -108.904463 251 35927ft 384kts
29-Apr-18 13:59 38.883122 -109.034682 250 35925ft 388kts
29-Apr-18 14:00 38.848856 -109.160741 250 35919ft 391kts
29-Apr-18 14:01 38.812818 -109.292633 250 35917ft 393kts
29-Apr-18 14:02 38.776586 -109.424570 250 35916ft 394kts
29-Apr-18 14:03 38.740080 -109.556829 250 35916ft 394kts
29-Apr-18 14:04 38.703557 -109.688476 249 35917ft 395kts
29-Apr-18 14:05 38.666929 -109.819846 249 35916ft 396kts
29-Apr-18 14:06 38.629814 -109.952287 249 35916ft 396kts
29-Apr-18 14:07 38.592574 -110.084508 249 35915ft 396kts
29-Apr-18 14:08 38.555247 -110.216368 247 35891ft 396kts
29-Apr-18 14:09 38.517657 -110.348501 247 35902ft 396kts
29-Apr-18 14:10 38.480028 -110.480112 247 35906ft 396kts
29-Apr-18 14:11 38.442175 -110.611854 247 35905ft 395kts
29-Apr-18 14:12 38.394945 -110.736211 232 35905ft 393kts
29-Apr-18 14:13 38.328465 -110.846090 232 35906ft 394kts
29-Apr-18 14:14 38.261851 -110.955980 232 35906ft 393kts
29-Apr-18 14:15 38.195242 -111.065504 232 35906ft 391kts
29-Apr-18 14:16 38.128980 -111.174091 233 35904ft 388kts
29-Apr-18 14:17 38.063118 -111.281675 233 35911ft 385kts
29-Apr-18 14:18 37.997637 -111.388283 233 35989ft 382kts
29-Apr-18 14:19 37.932452 -111.494068 233 36048ft 380kts
29-Apr-18 14:20 37.867765 -111.598714 233 36053ft 381kts
29-Apr-18 14:21 37.802492 -111.703969 232 36053ft 383kts
29-Apr-18 14:22 37.736632 -111.809826 232 36052ft 384kts
29-Apr-18 14:23 37.670710 -111.915439 232 36051ft 385kts
29-Apr-18 14:24 37.604515 -112.021149 232 36051ft 385kts
29-Apr-18 14:25 37.538439 -112.126960 234 36051ft 385kts
29-Apr-18 14:26 37.482325 -112.241257 238 36050ft 384kts
29-Apr-18 14:27 37.427326 -112.355993 238 36050ft 384kts
29-Apr-18 14:28 37.372190 -112.470649 238 36032ft 384kts
29-Apr-18 14:29 37.316984 -112.585060 238 35990ft 384kts
29-Apr-18 14:30 37.261960 -112.698701 238 35977ft 384kts
29-Apr-18 14:31 37.206527 -112.812793 238 35978ft 384kts
29-Apr-18 14:32 37.150901 -112.926894 238 35765ft 384kts
29-Apr-18 14:33 37.095339 -113.040452 238 33594ft 379kts
29-Apr-18 14:34 37.040401 -113.152367 239 31071ft 377kts
29-Apr-18 14:35 36.985704 -113.263434 239 28479ft 377kts
29-Apr-18 14:36 36.931143 -113.373842 239 26044ft 371kts
29-Apr-18 14:37 36.877601 -113.481831 238 23951ft 362kts
29-Apr-18 14:38 36.837634 -113.562270 238 23841ft 379kts
29-Apr-18 14:39 36.765944 -113.706021 237 23839ft 397kts
29-Apr-18 14:40 36.706833 -113.824049 237 23678ft 405kts
29-Apr-18 14:41 36.649690 -113.937654 237 21905ft 375kts
29-Apr-18 14:42 36.595583 -114.044985 237 19578ft 362kts
29-Apr-18 14:43 36.542575 -114.149355 236 17110ft 353kts
29-Apr-18 14:44 36.490535 -114.251123 236 14656ft 346kts
29-Apr-18 14:45 36.439920 -114.349831 236 12318ft 337kts
29-Apr-18 14:46 36.389507 -114.447843 236 12055ft 346kts
29-Apr-18 14:47 36.336906 -114.550084 236 12057ft 347kts
29-Apr-18 14:49 36.277681 -114.639197 203 12067ft 337kts
29-Apr-18 14:50 36.189838 -114.677266 200 11869ft 327kts
29-Apr-18 14:51 36.107152 -114.712814 199 10225ft 307kts
29-Apr-18 14:52 36.073602 -114.799150 266 8035ft 300kts
29-Apr-18 14:52 36.073727 -114.880745 265 6599ft 267kts
29-Apr-18 14:53 36.073980 -114.970331 265 5276ft 248kts
29-Apr-18 14:54 36.074316 -115.041306 264 3515ft 183kts
29-Apr-18 14:55 36.073806 -115.094434 262 2683ft 143kts
29-Apr-18 14:56 36.073657 -115.141188 269 2150ft 110kts
29-Apr-18 14:57 36.075105 -115.151212 328 2150ft 7kts
29-Apr-18 14:58 36.077545 -115.150861 29 2150ft 23kts
29-Apr-18 15:00 36.078105 -115.142384 357 2150ft 18kts
29-Apr-18 15:00 36.083714 -115.141253 51 2150ft 27kts
29-Apr-18 15:01 36.085445 -115.138024 0 2150ft 0kts
29-Apr-18 15:02 36.085431 -115.138024 0 2150ft 0kts

Navigation Log

Ident Type
Flight plan parsing failed, navigation log unavailable